Time;durP1;ratioP1;P1;durP2;ratioP2;P2;SDS_P1;SDS_P2;PMS_P1;PMS_P2;Temp;Humidity;BMP_temperature;BMP_pressure;BME280_temperature;BME280_humidity;BME280_pressure;Samples;Min_cycle;Max_cycle;Signal;HPM_P1;HPM_P2
2023/04/06 00:00:21;;;;;;;;;;;;;;;;;;;;;
2023/04/06 00:03:53;;;;;;;;;;;;;;;;;;;;;
2023/04/06 00:07:27;;;;;;;25.30;14.00;;;;;;;-1.97;67.25;101164.67;109305;1255;81702;-62
2023/04/06 00:11:00;;;;;;;25.80;14.90;;;;;;;-1.91;67.57;101164.50;109249;1255;73798;-62
2023/04/06 00:14:21;;;;;;;27.10;14.50;;;;;;;-1.89;67.77;101160.13;109288;1255;66831;-62
2023/04/06 00:17:55;;;;;;;;;;;;;;;;;;;;;
2023/04/06 00:21:46;;;;;;;25.70;15.10;;;;;;;-2.05;67.53;101163.13;109066;1255;75106;-61
2023/04/06 00:24:45;;;;;;;29.20;15.60;;;;;;;-2.08;67.58;101163.92;109082;1256;83427;-62
2023/04/06 00:28:26;;;;;;;;;;;;;;;;;;;;;
2023/04/06 00:31:41;;;;;;;29.90;14.30;;;;;;;-2.09;67.84;101158.06;109296;1255;66881;-62
2023/04/06 00:35:22;;;;;;;25.60;14.10;;;;;;;-2.07;67.86;101155.02;109291;1256;67195;-62
2023/04/06 00:38:38;;;;;;;;;;;;;;;;;;;;;
2023/04/06 00:41:34;;;;;;;29.50;15.10;;;;;;;-2.09;67.92;101151.54;109298;1254;82671;-62
2023/04/06 00:45:05;;;;;;;;;;;;;;;;;;;;;
2023/04/06 00:48:55;;;;;;;27.40;14.40;;;;;;;-2.15;68.24;101152.92;109212;1254;67086;-61
2023/04/06 00:56:26;;;;;;;27.60;14.10;;;;;;;-2.10;68.14;101149.64;109342;1254;72591;-62
2023/04/06 01:00:06;;;;;;;;;;;;;;;;;;;;;
2023/04/06 01:03:58;;;;;;;24.50;13.80;;;;;;;-2.15;68.34;101150.86;109375;1254;74004;-62
2023/04/06 01:07:31;;;;;;;;;;;;;;;;;;;;;
2023/04/06 01:11:07;;;;;;;29.20;14.90;;;;;;;-2.28;68.49;101146.59;109141;1254;66918;-62
2023/04/06 01:14:56;;;;;;;29.60;15.30;;;;;;;-2.33;68.46;101149.70;109327;1254;75038;-62
2023/04/06 01:18:18;;;;;;;28.80;15.50;;;;;;;-2.30;68.61;101150.81;109319;1254;83409;-62
2023/04/06 01:22:00;;;;;;;;;;;;;;;;;;;;;
2023/04/06 01:29:31;;;;;;;;;;;;;;;;;;;;;
2023/04/06 01:48:38;;;;;;;27.90;15.90;;;;;;;-2.60;69.01;101151.34;101701;1295;600673;-66
2023/04/06 01:56:20;;;;;;;32.60;17.40;;;;;;;-2.77;69.53;101146.94;103748;1277;69312;-62
2023/04/06 02:15:28;;;;;;;28.10;16.30;;;;;;;-2.82;69.88;101152.77;103870;1278;72289;-64
2023/04/06 02:23:30;;;;;;;32.90;16.60;;;;;;;-2.90;69.87;101150.30;101702;1298;602400;-64
2023/04/06 02:27:19;;;;;;;32.00;17.20;;;;;;;-2.93;70.04;101147.84;104450;1270;69119;-64
2023/04/06 02:31:08;;;;;;;32.90;16.70;;;;;;;-2.93;69.98;101149.55;104383;1269;69231;-66
2023/04/06 02:34:51;;;;;;;32.30;16.70;;;;;;;-2.95;70.33;101145.89;104456;1272;71121;-64
2023/04/06 02:38:40;;;;;;;30.30;15.90;;;;;;;-2.98;70.36;101153.83;100448;1266;80995;-64
2023/04/06 02:42:29;;;;;;;28.10;15.90;;;;;;;-2.98;70.50;101151.10;104592;1270;69221;-66
2023/04/06 02:46:03;;;;;;;28.30;14.80;;;;;;;-3.04;70.57;101155.17;104506;1269;69163;-63
2023/04/06 02:49:53;;;;;;;28.30;16.20;;;;;;;-3.10;70.52;101158.23;104628;1266;72409;-64
2023/04/06 02:53:42;;;;;;;29.50;16.80;;;;;;;-3.16;70.81;101161.48;104465;1266;83421;-63
2023/04/06 02:57:31;;;;;;;33.90;18.70;;;;;;;-3.27;70.83;101162.01;104450;1266;73844;-64
2023/04/06 03:05:07;;;;;;;;;;;;;;;;;;;;;
2023/04/06 03:08:58;;;;;;;35.90;18.40;;;;;;;-3.38;71.35;101165.75;103698;1275;73480;-63
2023/04/06 03:12:48;;;;;;;35.50;18.60;;;;;;;-3.45;71.24;101169.96;103847;1280;83200;-62
2023/04/06 03:16:36;;;;;;;33.20;18.10;;;;;;;-3.48;71.49;101169.88;103247;1280;72563;-66
2023/04/06 03:20:45;;;;;;;35.90;19.10;;;;;;;-3.50;71.60;101167.75;103175;1280;69435;-63
2023/04/06 03:27:52;;;;;;;31.40;17.90;;;;;;;-3.60;71.46;101171.20;102979;1286;72244;-63
2023/04/06 03:35:54;;;;;;;;;;;;;;;;;;;;;
2023/04/06 03:54:59;;;;;;;34.60;19.00;;;;;;;-3.61;72.07;101200.38;104257;1275;69183;-66
2023/04/06 04:02:37;;;;;;;33.10;18.90;;;;;;;-3.72;72.00;101208.20;104271;1269;72555;-65
2023/04/06 04:06:27;;;;;;;34.50;19.40;;;;;;;-3.75;72.22;101211.84;100527;1271;83030;-67
2023/04/06 04:14:05;;;;;;;38.90;20.40;;;;;;;-3.86;72.49;101215.41;104872;1264;69262;-68
2023/04/06 04:17:33;;;;;;;;;;;;;;;;;;;;;
2023/04/06 04:21:25;;;;;;;44.10;23.20;;;;;;;-3.90;72.59;101213.55;104790;1263;82492;-68
2023/04/06 04:32:51;;;;;;;39.10;22.20;;;;;;;-3.92;73.02;101219.47;104803;1266;69241;-68
2023/04/06 04:40:29;;;;;;;38.40;21.10;;;;;;;-3.91;73.06;101210.98;104730;1264;81460;-69
2023/04/06 04:48:08;;;;;;;40.60;21.30;;;;;;;-3.87;73.35;101212.14;104652;1275;69145;-69
2023/04/06 04:51:57;;;;;;;41.10;21.70;;;;;;;-3.80;73.56;101211.86;104609;1265;69151;-68
2023/04/06 04:55:46;;;;;;;43.00;22.20;;;;;;;-3.79;73.27;101213.43;104695;1267;73023;-66
2023/04/06 04:59:20;;;;;;;46.40;24.90;;;;;;;-3.77;73.40;101214.02;104729;1263;83492;-65
2023/04/06 05:02:50;;;;;;;;;;;;;;;;;;;;;
2023/04/06 05:06:19;;;;;;;55.20;29.20;;;;;;;-3.68;73.81;101214.99;104713;1266;69221;-63
2023/04/06 05:09:17;;;;;;;52.90;28.20;;;;;;;-3.60;73.89;101216.80;105042;1265;69301;-66
2023/04/06 05:12:26;;;;;;;50.80;27.10;;;;;;;-3.56;74.01;101215.73;104925;1274;72314;-66
2023/04/06 05:15:54;;;;;;;;;;;;;;;;;;;;;
2023/04/06 05:22:57;;;;;;;70.60;31.30;;;;;;;-3.30;74.54;101215.59;104504;1276;69292;-61
2023/04/06 05:25:58;;;;;;;;;;;;;;;;;;;;;
2023/04/06 05:29:02;;;;;;;;;;;;;;;;;;;;;
2023/04/06 05:31:44;;;;;;;56.20;27.20;;;;;;;-3.10;74.42;101229.86;104534;1271;82608;-61
2023/04/06 05:35:22;;;;;;;;;;;;;;;;;;;;;
2023/04/06 05:38:41;;;;;;;;;;;;;;;;;;;;;
2023/04/06 05:42:12;;;;;;;71.60;36.10;;;;;;;-2.71;74.43;101227.67;104485;1272;69168;-63
2023/04/06 05:45:51;;;;;;;;;;;;;;;;;;;;;
2023/04/06 05:49:19;;;;;;;48.20;28.00;;;;;;;-2.41;74.45;101227.02;104696;1275;83213;-65
2023/04/06 05:52:57;;;;;;;48.00;26.70;;;;;;;-2.29;74.32;101222.07;104357;1275;73754;-65
2023/04/06 05:55:55;;;;;;;50.80;25.20;;;;;;;-2.16;74.51;101218.83;104228;1276;69377;-65
2023/04/06 05:59:27;;;;;;;50.50;27.30;;;;;;;-2.03;74.68;101218.33;104660;1268;69335;-66
2023/04/06 06:02:58;;;;;;;73.60;45.70;;;;;;;-1.93;74.70;101219.80;104651;1269;72250;-64
2023/04/06 06:06:23;;;;;;;68.20;39.60;;;;;;;-1.83;74.77;101220.06;104749;1270;83337;-65
2023/04/06 06:09:41;;;;;;;62.60;32.20;;;;;;;-1.73;74.85;101219.63;104835;1266;73666;-64
2023/04/06 06:13:31;;;;;;;59.80;31.70;;;;;;;-1.63;74.99;101220.23;104659;1270;69209;-64
2023/04/06 06:17:10;;;;;;;61.20;33.20;;;;;;;-1.50;75.07;101220.73;104677;1267;69331;-64
2023/04/06 06:20:28;;;;;;;;;;;;;;;;;;;;;
2023/04/06 06:23:22;;;;;;;48.20;27.40;;;;;;;-1.27;75.41;101216.67;104757;1267;83404;-64
2023/04/06 06:26:39;;;;;;;45.90;25.60;;;;;;;-1.16;75.54;101214.55;105084;1261;72482;-65
2023/04/06 06:30:05;;;;;;;49.20;28.80;;;;;;;-1.00;75.51;101211.30;104968;1264;69157;-65
2023/04/06 06:33:00;;;;;;;49.20;28.20;;;;;;;-0.86;75.48;101211.29;104879;1265;69099;-64
2023/04/06 06:36:11;;;;;;;54.30;31.60;;;;;;;-0.74;75.54;101212.41;105054;1267;73310;-64
2023/04/06 06:39:30;;;;;;;;;;;;;;;;;;;;;
2023/04/06 06:42:55;;;;;;;54.10;30.50;;;;;;;-0.49;75.60;101221.36;104922;1261;73595;-65
2023/04/06 06:45:53;;;;;;;50.20;28.40;;;;;;;-0.42;75.67;101217.73;105018;1261;69297;-64
2023/04/06 06:49:33;;;;;;;50.80;29.90;;;;;;;-0.35;75.53;101219.44;104943;1266;69189;-64
2023/04/06 06:52:38;;;;;;;;;;;;;;;;;;;;;
2023/04/06 06:56:10;;;;;;;49.50;28.40;;;;;;;-0.11;76.13;101222.48;104880;1265;83379;-61
2023/04/06 06:59:47;;;;;;;51.40;29.00;;;;;;;0.00;75.85;101218.74;104817;1265;72691;-60
2023/04/06 07:03:01;;;;;;;49.70;28.60;;;;;;;0.12;76.03;101220.85;104897;1260;69178;-65
2023/04/06 07:06:21;;;;;;;44.80;26.20;;;;;;;0.21;75.93;101220.69;105221;1264;69161;-64
2023/04/06 07:09:35;;;;;;;;;;;;;;;;;;;;;
2023/04/06 07:13:11;;;;;;;46.10;24.90;;;;;;;0.56;76.30;101225.77;104974;1261;83284;-62
2023/04/06 07:16:17;;;;;;;40.90;25.70;;;;;;;0.73;76.00;101225.89;105089;1261;73801;-62
2023/04/06 07:19:28;;;;;;;40.90;25.40;;;;;;;0.88;76.18;101226.64;104986;1264;69112;-61
2023/04/06 07:22:31;;;;;;;41.20;24.90;;;;;;;1.07;76.10;101230.73;104999;1260;69149;-60
2023/04/06 07:25:50;;;;;;;;;;;;;;;;;;;;;
2023/04/06 07:28:44;;;;;;;44.10;25.10;;;;;;;1.30;76.14;101228.31;105046;1261;84359;-61
2023/04/06 07:32:15;;;;;;;45.10;26.80;;;;;;;1.41;75.97;101221.39;104848;1266;73805;-63
2023/04/06 07:39:53;;;;;;;39.60;23.70;;;;;;;1.70;75.73;101219.88;104760;1271;69193;-67
2023/04/06 07:43:42;;;;;;;38.30;23.60;;;;;;;1.88;75.71;101220.60;104852;1263;71886;-67
2023/04/06 07:47:31;;;;;;;36.80;22.90;;;;;;;2.11;75.47;101219.48;104822;1261;83478;-67
2023/04/06 07:51:21;;;;;;;44.50;25.30;;;;;;;2.27;75.10;101220.68;104812;1261;73245;-65
2023/04/06 07:54:52;;;;;;;;;;;;;;;;;;;;;
2023/04/06 07:58:30;;;;;;;40.70;23.70;;;;;;;2.64;74.58;101211.02;105004;1261;69153;-68
2023/04/06 08:02:17;;;;;;;39.50;22.60;;;;;;;2.90;74.84;101209.15;104752;1261;73353;-70
2023/04/06 08:06:07;;;;;;;37.30;22.20;;;;;;;3.10;73.95;101211.53;104744;1260;83864;-70
2023/04/06 08:09:56;;;;;;;33.80;20.70;;;;;;;3.27;73.99;101213.37;104729;1260;72780;-70
2023/04/06 08:13:45;;;;;;;32.20;20.20;;;;;;;3.53;73.86;101210.56;104713;1261;69220;-67
2023/04/06 08:17:34;;;;;;;35.30;21.80;;;;;;;3.80;73.27;101209.48;104795;1260;69296;-67
2023/04/06 08:21:24;;;;;;;38.10;21.50;;;;;;;4.11;72.94;101213.21;104665;1266;72224;-67
2023/04/06 08:25:13;;;;;;;36.40;22.50;;;;;;;4.32;71.99;101212.04;104613;1265;83318;-65
2023/04/06 08:29:03;;;;;;;38.10;22.60;;;;;;;4.47;71.41;101211.20;104664;1266;73778;-63
2023/04/06 08:32:42;;;;;;;;;;;;;;;;;;;;;
2023/04/06 08:36:26;;;;;;;;;;;;;;;;;;;;;
2023/04/06 08:39:45;;;;;;;27.50;18.40;;;;;;;5.03;69.63;101208.24;104897;1261;73036;-65
2023/04/06 08:43:26;;;;;;;33.10;19.30;;;;;;;5.22;69.72;101205.43;104766;1261;83455;-65
2023/04/06 08:46:42;;;;;;;28.50;18.70;;;;;;;5.47;69.62;101203.80;104839;1259;72674;-63
2023/04/06 08:50:15;;;;;;;23.60;15.50;;;;;;;5.63;68.81;101204.63;104792;1260;69303;-65
2023/04/06 08:53:38;;;;;;;19.50;13.80;;;;;;;5.85;67.99;101204.02;104906;1259;69120;-64
2023/04/06 08:57:02;;;;;;;;;;;;;;;;;;;;;
2023/04/06 09:00:35;;;;;;;27.30;17.20;;;;;;;5.95;66.17;101197.73;105087;1261;83189;-67
2023/04/06 09:04:07;;;;;;;;;;;;;;;;;;;;;
2023/04/06 09:07:21;;;;;;;20.40;13.40;;;;;;;6.19;65.13;101194.14;105029;1259;69235;-63
2023/04/06 09:10:47;;;;;;;22.90;14.90;;;;;;;6.27;64.45;101186.80;105010;1261;69100;-67
2023/04/06 09:14:11;;;;;;;26.50;16.20;;;;;;;6.25;63.97;101186.11;105006;1260;73398;-63
2023/04/06 09:17:46;;;;;;;15.90;10.30;;;;;;;6.23;63.57;101185.95;104953;1263;83440;-63
2023/04/06 09:20:57;;;;;;;16.60;10.30;;;;;;;6.27;62.38;101184.36;105091;1259;73773;-65
2023/04/06 09:24:12;;;;;;;14.30;9.90;;;;;;;6.47;62.03;101181.62;105022;1259;69104;-64
2023/04/06 09:27:54;;;;;;;14.30;9.70;;;;;;;6.62;61.31;101177.66;105017;1263;69228;-62
2023/04/06 09:31:12;;;;;;;12.90;8.90;;;;;;;6.74;60.51;101175.33;105118;1258;73446;-63
2023/04/06 09:34:28;;;;;;;;;;;;;;;;;;;;;
2023/04/06 09:37:32;;;;;;;14.10;9.90;;;;;;;7.38;59.99;101178.32;105018;1260;73483;-63
2023/04/06 09:40:36;;;;;;;14.30;9.20;;;;;;;7.86;60.13;101177.03;105023;1259;69214;-65
2023/04/06 09:43:44;;;;;;;12.00;7.80;;;;;;;8.31;59.15;101178.13;105055;1263;69168;-64
2023/04/06 09:46:31;;;;;;;11.40;7.30;;;;;;;8.77;58.66;101175.86;105052;1263;73387;-65
2023/04/06 09:49:41;;;;;;;;;;;;;;;;;;;;;
2023/04/06 09:52:41;;;;;;;11.70;7.80;;;;;;;9.22;56.45;101165.96;105085;1263;73766;-64
2023/04/06 09:55:51;;;;;;;11.50;7.00;;;;;;;9.43;55.25;101163.98;104948;1264;69346;-66
2023/04/06 09:58:30;;;;;;;13.50;8.50;;;;;;;9.57;54.66;101166.48;105068;1260;69189;-66
2023/04/06 10:01:25;;;;;;;11.60;8.60;;;;;;;9.79;54.44;101170.75;104996;1260;74123;-64
2023/04/06 10:04:50;;;;;;;10.70;7.90;;;;;;;9.91;53.40;101167.52;105054;1264;83521;-62
2023/04/06 10:07:45;;;;;;;11.90;7.90;;;;;;;10.01;53.22;101160.48;104814;1267;74078;-63
2023/04/06 10:10:48;;;;;;;13.90;8.00;;;;;;;10.25;52.99;101161.17;104804;1264;69259;-64
2023/04/06 10:13:47;;;;;;;9.90;7.40;;;;;;;10.40;52.12;101161.72;104800;1267;69283;-67
2023/04/06 10:16:36;;;;;;;10.40;6.90;;;;;;;10.62;51.77;101159.77;104906;1263;74229;-67
2023/04/06 10:19:29;;;;;;;9.20;6.20;;;;;;;10.81;50.90;101158.60;104771;1267;83373;-65
2023/04/06 10:22:19;;;;;;;10.90;7.00;;;;;;;10.93;50.88;101158.45;104782;1267;73738;-67
2023/04/06 10:24:59;;;;;;;10.30;6.80;;;;;;;11.15;50.61;101158.02;104850;1267;69167;-67
2023/04/06 10:27:36;;;;;;;9.70;6.60;;;;;;;11.45;50.25;101158.79;104831;1267;69142;-65
2023/04/06 10:30:18;;;;;;;9.30;6.70;;;;;;;11.70;49.63;101161.19;104777;1267;74506;-66
2023/04/06 10:32:55;;;;;;;10.80;7.00;;;;;;;11.98;48.84;101155.14;104780;1266;83463;-65
2023/04/06 10:35:37;;;;;;;11.10;7.10;;;;;;;12.06;48.37;101148.57;104738;1263;73940;-59
2023/04/06 10:38:08;;;;;;;10.90;7.40;;;;;;;12.22;47.89;101148.43;104829;1267;69331;-57
2023/04/06 10:40:48;;;;;;;9.90;6.50;;;;;;;12.28;46.80;101149.11;104814;1267;70018;-55
2023/04/06 10:43:23;;;;;;;10.60;7.10;;;;;;;12.43;46.69;101140.22;104828;1267;74412;-53
2023/04/06 10:46:00;;;;;;;11.80;5.80;;;;;;;12.63;46.69;101139.38;105065;1259;82929;-59
2023/04/06 10:48:49;;;;;;;8.50;6.20;;;;;;;12.88;46.31;101135.90;105134;1260;73762;-58
2023/04/06 10:51:27;;;;;;;9.20;6.50;;;;;;;13.10;45.70;101131.41;105051;1260;69142;-54
2023/04/06 10:53:59;;;;;;;7.40;5.80;;;;;;;13.31;45.52;101131.23;105112;1262;69154;-58
2023/04/06 10:56:36;;;;;;;9.50;6.10;;;;;;;13.39;44.59;101128.83;105089;1260;74152;-61
2023/04/06 10:59:06;;;;;;;7.90;5.70;;;;;;;13.49;44.45;101127.92;105097;1262;82560;-54
2023/04/06 11:01:38;;;;;;;10.10;6.60;;;;;;;13.63;44.36;101128.48;105065;1258;73851;-53
2023/04/06 11:04:13;;;;;;;7.90;6.30;;;;;;;13.88;44.48;101125.39;105012;1261;69202;-55
2023/04/06 11:06:47;;;;;;;7.80;6.10;;;;;;;14.16;44.25;101129.55;105060;1260;69199;-56
2023/04/06 11:09:31;;;;;;;8.50;6.60;;;;;;;14.29;43.80;101125.84;105073;1259;74689;-56
2023/04/06 11:12:00;;;;;;;9.90;6.20;;;;;;;14.41;42.98;101115.16;105064;1263;82486;-54
2023/04/06 11:14:31;;;;;;;9.00;5.90;;;;;;;14.47;43.05;101115.08;105071;1261;72807;-54
2023/04/06 11:17:03;;;;;;;10.80;6.20;;;;;;;14.69;43.06;101111.55;105014;1261;70005;-54
2023/04/06 11:19:35;;;;;;;8.90;6.10;;;;;;;14.94;42.30;101111.67;105043;1264;69212;-52
2023/04/06 11:22:11;;;;;;;7.50;5.50;;;;;;;14.89;41.52;101117.57;105080;1263;74232;-55
2023/04/06 11:24:39;;;;;;;9.20;6.60;;;;;;;14.92;41.54;101111.77;105090;1260;83889;-54
2023/04/06 11:27:12;;;;;;;8.90;7.10;;;;;;;15.04;41.42;101109.15;105100;1263;73470;-56
2023/04/06 11:29:40;;;;;;;10.30;6.40;;;;;;;15.10;41.19;101105.16;105061;1259;69182;-59
2023/04/06 11:32:19;;;;;;;10.20;7.20;;;;;;;15.05;40.85;101108.40;105090;1263;69279;-57
2023/04/06 11:34:48;;;;;;;10.50;7.20;;;;;;;15.00;40.53;101103.52;105018;1261;73251;-57
2023/04/06 11:37:20;;;;;;;7.60;6.20;;;;;;;14.99;40.59;101103.05;105083;1259;83483;-58
2023/04/06 11:39:50;;;;;;;8.70;7.40;;;;;;;15.01;40.51;101104.02;105024;1260;72729;-57
2023/04/06 11:42:26;;;;;;;11.40;7.10;;;;;;;15.05;40.66;101104.88;105054;1259;69091;-50
2023/04/06 11:44:56;;;;;;;10.90;7.70;;;;;;;15.20;40.32;101103.34;105097;1264;69292;-54
2023/04/06 11:47:32;;;;;;;;;;;;;;;15.24;39.98;101102.97;105123;1259;73229;-58
2023/04/06 11:50:12;;;;;;;9.70;6.80;;;;;;;15.27;39.59;101098.41;105087;1264;83332;-57
2023/04/06 11:52:41;;;;;;;11.10;9.30;;;;;;;15.29;39.42;101094.82;105166;1259;73915;-59
2023/04/06 11:55:14;;;;;;;10.80;8.40;;;;;;;15.43;39.80;101090.11;105074;1258;69235;-56
2023/04/06 11:57:43;;;;;;;10.90;8.30;;;;;;;15.57;39.24;101087.56;105074;1263;69320;-52
2023/04/06 12:00:15;;;;;;;10.40;6.70;;;;;;;15.48;38.70;101080.59;105115;1262;72758;-57
2023/04/06 12:02:47;;;;;;;10.60;6.80;;;;;;;15.35;38.60;101082.23;105106;1259;82427;-54
2023/04/06 12:05:16;;;;;;;14.60;7.40;;;;;;;15.12;38.51;101077.96;105086;1259;73795;-56
2023/04/06 12:07:48;;;;;;;17.50;7.20;;;;;;;15.15;38.71;101075.90;105023;1264;69148;-60
2023/04/06 12:10:18;;;;;;;11.70;8.80;;;;;;;14.82;38.24;101073.87;105061;1259;69225;-57
2023/04/06 12:12:47;;;;;;;10.40;8.60;;;;;;;14.66;38.78;101069.80;105095;1259;74072;-60
2023/04/06 12:15:15;;;;;;;11.80;9.80;;;;;;;14.85;38.66;101067.40;105044;1263;83282;-60
2023/04/06 12:17:44;;;;;;;9.50;7.70;;;;;;;15.02;38.76;101070.36;105150;1263;73787;-57
2023/04/06 12:20:13;;;;;;;14.10;12.00;;;;;;;15.34;38.61;101063.80;105100;1264;69165;-57
2023/04/06 12:22:54;;;;;;;11.60;9.90;;;;;;;15.56;38.47;101060.12;105058;1259;69347;-58
2023/04/06 12:25:22;;;;;;;8.80;7.90;;;;;;;15.73;38.33;101055.78;105147;1263;73199;-58
2023/04/06 12:27:51;;;;;;;8.70;7.30;;;;;;;15.92;38.41;101058.59;105073;1260;82571;-57
2023/04/06 12:30:19;;;;;;;15.40;9.40;;;;;;;16.10;37.88;101057.00;105055;1259;73766;-58
2023/04/06 12:32:48;;;;;;;12.50;9.80;;;;;;;16.10;37.39;101052.26;105076;1259;69242;-62
2023/04/06 12:35:18;;;;;;;11.40;8.60;;;;;;;16.13;37.58;101052.09;105097;1260;69187;-59
2023/04/06 12:37:46;;;;;;;9.80;8.00;;;;;;;16.23;37.18;101049.48;105111;1258;73432;-62
2023/04/06 12:40:15;;;;;;;7.90;7.10;;;;;;;16.32;36.90;101049.21;105064;1260;83303;-57
2023/04/06 12:42:45;;;;;;;8.70;7.30;;;;;;;16.37;36.55;101042.80;105068;1263;73552;-57
2023/04/06 12:45:13;;;;;;;;;;;;;;;16.42;36.34;101039.18;105063;1264;69206;-58
2023/04/06 12:47:42;;;;;;;11.40;7.30;;;;;;;16.43;36.27;101039.46;105084;1263;69196;-59
2023/04/06 12:50:10;;;;;;;9.90;7.40;;;;;;;16.58;36.50;101033.26;105084;1259;74261;-59
2023/04/06 12:52:39;;;;;;;9.40;7.20;;;;;;;16.94;36.61;101029.23;105083;1263;83269;-58
2023/04/06 12:55:07;;;;;;;8.60;6.70;;;;;;;17.19;36.35;101027.52;105065;1261;73895;-57
2023/04/06 12:57:36;;;;;;;10.10;6.80;;;;;;;17.38;36.29;101026.68;105076;1259;69152;-58
2023/04/06 13:00:05;;;;;;;11.00;7.10;;;;;;;17.20;35.84;101023.98;105072;1262;69217;-58
2023/04/06 13:02:36;;;;;;;15.70;13.40;;;;;;;16.71;35.19;101027.06;105088;1260;74062;-60
2023/04/06 13:05:06;;;;;;;11.70;9.30;;;;;;;16.30;35.14;101026.92;105043;1259;83399;-58
2023/04/06 13:07:34;;;;;;;12.60;8.70;;;;;;;16.31;35.56;101021.57;105136;1259;72815;-59
2023/04/06 13:10:03;;;;;;;9.00;6.50;;;;;;;16.42;35.47;101020.98;105081;1263;69234;-60
2023/04/06 13:12:31;;;;;;;8.80;6.60;;;;;;;16.49;35.58;101016.55;105103;1260;69221;-61
2023/04/06 13:15:03;;;;;;;7.80;6.30;;;;;;;16.50;35.36;101011.91;105035;1262;74415;-62
2023/04/06 13:17:31;;;;;;;9.50;6.30;;;;;;;16.73;35.69;101011.61;105036;1260;83156;-61
2023/04/06 13:19:59;;;;;;;9.30;6.80;;;;;;;16.93;35.20;101008.98;105077;1259;73608;-58
2023/04/06 13:22:28;;;;;;;8.50;6.40;;;;;;;16.91;34.97;101005.73;105117;1259;69269;-59
2023/04/06 13:24:56;;;;;;;8.60;6.80;;;;;;;16.97;34.86;101004.20;105120;1259;69235;-59
2023/04/06 13:27:24;;;;;;;8.00;6.20;;;;;;;17.03;34.58;101000.56;105046;1262;73031;-57
2023/04/06 13:29:54;;;;;;;25.20;17.00;;;;;;;17.16;34.79;101003.13;105096;1263;83264;-60
2023/04/06 13:32:22;;;;;;;18.20;12.20;;;;;;;17.35;34.46;101000.85;105076;1260;73738;-61
2023/04/06 13:34:54;;;;;;;9.40;7.40;;;;;;;17.36;34.16;100999.60;105110;1262;69199;-56
2023/04/06 13:37:23;;;;;;;22.30;16.00;;;;;;;17.37;34.02;100997.72;105109;1259;69022;-59
2023/04/06 13:39:51;;;;;;;10.10;8.70;;;;;;;17.42;33.98;100995.91;105173;1259;72708;-59
2023/04/06 13:42:19;;;;;;;11.70;7.70;;;;;;;17.53;33.83;100991.90;105063;1264;82511;-59
2023/04/06 13:44:50;;;;;;;11.60;8.10;;;;;;;17.59;33.88;100988.74;105073;1264;72676;-59
2023/04/06 13:47:20;;;;;;;10.80;7.40;;;;;;;17.63;33.52;100986.02;105035;1259;69097;-58
2023/04/06 13:49:52;;;;;;;7.60;5.80;;;;;;;17.55;33.18;100985.59;105143;1259;69029;-58
2023/04/06 13:52:21;;;;;;;10.20;7.30;;;;;;;17.48;33.22;100986.70;105079;1260;73775;-59
2023/04/06 13:54:50;;;;;;;8.50;6.50;;;;;;;17.43;33.12;100986.30;105096;1259;83264;-58
2023/04/06 13:57:18;;;;;;;9.60;6.50;;;;;;;17.35;33.27;100984.44;105116;1264;72848;-58
2023/04/06 13:59:46;;;;;;;6.10;5.50;;;;;;;17.37;33.23;100976.34;105044;1264;69148;-57
2023/04/06 14:02:15;;;;;;;7.90;6.20;;;;;;;17.52;33.51;100973.73;105039;1259;69203;-58
2023/04/06 14:04:44;;;;;;;7.60;6.10;;;;;;;17.62;33.11;100972.33;105066;1259;74106;-57
2023/04/06 14:07:12;;;;;;;7.30;6.40;;;;;;;17.52;33.04;100972.18;105034;1261;83455;-57
2023/04/06 14:09:40;;;;;;;10.90;8.80;;;;;;;17.42;33.10;100977.36;105084;1263;72854;-56
2023/04/06 14:12:09;;;;;;;11.20;8.40;;;;;;;17.44;33.10;100977.76;105039;1258;69105;-57
2023/04/06 14:14:37;;;;;;;12.00;8.50;;;;;;;17.63;33.02;100968.56;105055;1260;69128;-59
2023/04/06 14:17:05;;;;;;;11.80;9.40;;;;;;;17.80;33.01;100965.95;105049;1264;74407;-58
2023/04/06 14:19:34;;;;;;;8.00;7.10;;;;;;;17.92;32.53;100961.59;105111;1259;83399;-59
2023/04/06 14:22:02;;;;;;;10.20;7.20;;;;;;;17.91;32.65;100961.86;105138;1259;72816;-58
2023/04/06 14:24:30;;;;;;;16.80;9.20;;;;;;;17.88;32.53;100958.63;105048;1259;69219;-58
2023/04/06 14:27:00;;;;;;;9.80;8.00;;;;;;;17.80;32.40;100960.67;105052;1259;69228;-59
2023/04/06 14:29:29;;;;;;;;;;;;;;;17.79;32.39;100962.67;105114;1259;74096;-58
2023/04/06 14:31:59;;;;;;;10.10;7.60;;;;;;;17.80;32.38;100960.35;105140;1259;82731;-56
2023/04/06 14:34:28;;;;;;;10.50;7.60;;;;;;;17.90;32.21;100958.54;105098;1264;72803;-58
2023/04/06 14:36:56;;;;;;;10.00;7.30;;;;;;;17.85;32.09;100953.70;105069;1261;69183;-58
2023/04/06 14:39:25;;;;;;;8.20;7.00;;;;;;;17.82;32.25;100951.73;105079;1260;69190;-59
2023/04/06 14:41:53;;;;;;;12.30;8.00;;;;;;;17.86;32.23;100954.16;105104;1263;74426;-62
2023/04/06 14:44:21;;;;;;;9.70;7.50;;;;;;;17.78;32.34;100955.11;105034;1259;82495;-60
2023/04/06 14:46:50;;;;;;;10.40;7.70;;;;;;;17.72;32.19;100955.29;105022;1260;73890;-59
2023/04/06 14:49:18;;;;;;;8.60;6.90;;;;;;;17.62;32.46;100954.96;105105;1264;69824;-56
2023/04/06 14:51:47;;;;;;;10.70;7.70;;;;;;;17.92;32.62;100954.86;105022;1260;69237;-60
2023/04/06 14:54:15;;;;;;;10.80;6.70;;;;;;;18.20;32.23;100951.81;105134;1263;74246;-60
2023/04/06 14:56:43;;;;;;;12.60;9.50;;;;;;;18.19;32.17;100949.88;105050;1260;82819;-57
2023/04/06 14:59:12;;;;;;;8.80;7.90;;;;;;;18.33;31.91;100943.60;105067;1260;72633;-57
2023/04/06 15:01:40;;;;;;;17.10;12.40;;;;;;;18.43;32.04;100945.62;105051;1259;69147;-57
2023/04/06 15:04:11;;;;;;;10.60;8.20;;;;;;;18.71;32.06;100944.42;105121;1259;69186;-58
2023/04/06 15:06:39;;;;;;;11.90;8.60;;;;;;;18.94;31.67;100944.43;105091;1260;74081;-59
2023/04/06 15:09:08;;;;;;;10.90;8.40;;;;;;;19.17;31.58;100941.36;105100;1259;83481;-58
2023/04/06 15:11:36;;;;;;;15.80;11.50;;;;;;;19.40;31.43;100942.75;105005;1258;72815;-59
2023/04/06 15:14:05;;;;;;;10.90;9.00;;;;;;;19.59;31.16;100937.41;105031;1259;69604;-62
2023/04/06 15:16:34;;;;;;;17.30;12.70;;;;;;;19.65;30.99;100936.14;105124;1259;69028;-57
2023/04/06 15:19:02;;;;;;;9.40;7.30;;;;;;;19.54;30.45;100934.14;105139;1264;73731;-58
2023/04/06 15:21:32;;;;;;;8.70;7.20;;;;;;;19.25;30.36;100934.85;105130;1263;82226;-59
2023/04/06 15:24:00;;;;;;;9.10;7.30;;;;;;;18.90;30.38;100933.16;105090;1259;72841;-59
2023/04/06 15:26:28;;;;;;;12.40;9.40;;;;;;;18.47;30.18;100933.67;105036;1261;69160;-57
2023/04/06 15:28:56;;;;;;;11.30;9.60;;;;;;;17.97;30.11;100931.24;105033;1259;69187;-60
2023/04/06 15:31:25;;;;;;;11.80;10.10;;;;;;;17.63;30.08;100930.02;104996;1264;73427;-61
2023/04/06 15:34:07;;;;;;;;;;;;;;;17.31;30.44;100921.96;105086;1260;83358;-58
2023/04/06 15:36:36;;;;;;;11.00;7.30;;;;;;;17.18;30.86;100926.39;105075;1259;73125;-54
2023/04/06 15:39:08;;;;;;;10.90;7.30;;;;;;;17.27;31.04;100926.09;105098;1259;69109;-55
2023/04/06 15:41:37;;;;;;;11.50;8.00;;;;;;;17.37;30.99;100921.42;105070;1260;69198;-54
2023/04/06 15:44:06;;;;;;;11.40;7.70;;;;;;;17.15;30.91;100926.20;105054;1263;74123;-55
2023/04/06 15:46:34;;;;;;;33.10;8.90;;;;;;;16.89;31.09;100929.08;105073;1260;83389;-54
2023/04/06 15:49:03;;;;;;;16.90;10.70;;;;;;;16.56;30.99;100930.46;105141;1259;72990;-55
2023/04/06 15:51:32;;;;;;;19.00;12.40;;;;;;;16.33;31.00;100932.08;105089;1259;69206;-55
2023/04/06 15:54:01;;;;;;;21.60;14.10;;;;;;;15.95;31.14;100930.31;105117;1264;69086;-56
2023/04/06 15:56:32;;;;;;;26.70;15.90;;;;;;;15.51;31.45;100929.83;105124;1259;73153;-53
2023/04/06 15:59:01;;;;;;;28.30;15.20;;;;;;;14.97;31.54;100934.35;105073;1259;83586;-56
2023/04/06 16:01:35;;;;;;;38.00;24.60;;;;;;;14.40;32.01;100934.64;105014;1259;73864;-52
2023/04/06 16:04:07;;;;;;;34.80;18.40;;;;;;;13.92;32.12;100937.25;104783;1263;350214;-55
2023/04/06 16:06:39;;;;;;;31.90;17.40;;;;;;;13.46;32.54;100932.83;105086;1264;69231;-54
2023/04/06 16:09:19;;;;;;;15.70;9.40;;;;;;;13.09;32.73;100936.36;105072;1259;74221;-54
2023/04/06 16:11:58;;;;;;;15.70;11.10;;;;;;;12.72;33.32;100939.17;105092;1263;83317;-57
2023/04/06 16:14:35;;;;;;;13.80;9.80;;;;;;;12.33;33.36;100937.25;105022;1259;73500;-56